Архив погоды в Павловском Посаде

Метеограмма Павловский Посад
Среда, 17 Октября
Время местн. Темп Ветер Видим Явления Облачность нижн/средн/верх Атм. давл. Влжн Точка росы ВНГО R Сост. почвы Tg s
Напр Скр Прв ур.ст ур.м изм
15:00 +16.6° З,С-З 1 - 10 км - ясно 757 769 -0.2 51% +6.4° более 2.5 км - - - -
12:00 +14.4° С-З 1 - 10 км - ясно 758 770 +1 56% +5.7° более 2.5 км - - - -
09:00 +8.3° Ю,Ю-З 1 - 10 км - ясно 757 769 +0.5 80% +5° более 2.5 км 0 Влажная (без луж) - -
06:00 +4.4° Ю,Ю-З 1 - 10 км - ясно 756 769 +0.4 93% +3.4° более 2.5 км - - - -
03:00 +5.2° Ю 1 - 10 км - ясно 756 768 +0.1 88% +3.4° более 2.5 км - - - -
00:00 +8.5° Ю-З 1 - 10 км - ясно 756 768 0 75% +4.3° более 2.5 км - - - -
Вторник, 16 Октября
Время местн. Темп Ветер Видим Явления Облачность нижн/средн/верх Атм. давл. Влжн Точка росы ВНГО R Сост. почвы Tg s
Напр Скр Прв ур.ст ур.м изм
21:00 +11.1° Ю-З 2 - 10 км - переменная облачность 756 768 -0.5 63% +4.3° более 2.5 км 0 - - -
18:00 +12.8° Ю,Ю-З 1 - 10 км - переменная облачность 756 768 -0.6 54% +3.8° более 2.5 км - - - -
15:00 +18.6° З,Ю-З 2 - 10 км - переменная облачность 757 769 -1 32% +1.5° более 2.5 км - - - -
12:00 +15.4° Ю-З 2 - 10 км - преимущественно облачно 758 770 -0.2 54% +6.2° более 2.5 км - - - -
09:00 +7.8° Ю-З 2 - 10 км - преимущественно облачно 758 770 -0.2 92% +6.6° более 2.5 км 0 Влажная (без луж) - -
06:00 +5.5° Ю,Ю-З 1 - 4 км дымка переменная облачность 758 771 -0.2 96% +4.9° более 2.5 км - - - -
03:00 +5.8° штиль 0 - 4 км дымка ясно 758 771 +0.1 96% +5.2° более 2.5 км - - - -
00:00 +6.3° Ю,Ю-З 1 - 4 км дымка ясно 758 771 +0.1 95% +5.5° более 2.5 км - - - -
Понедельник, 15 Октября
Время местн. Темп Ветер Видим Явления Облачность нижн/средн/верх Атм. давл. Влжн Точка росы ВНГО R Сост. почвы Tg s
Напр Скр Прв ур.ст ур.м изм
21:00 +9.1° Ю,Ю-З 1 - 10 км - ясно 758 770 -0.2 90% +7.6° более 2.5 км 0 - - -
18:00 +14.2° З 1 - 10 км - ясно 758 770 +0.1 66% +8° более 2.5 км - - - -
15:00 +18.8° З 2 - 10 км - ясно 758 770 -0.3 53% +8.9° более 2.5 км - - - -
12:00 +16.9° З,С-З 3 - 10 км - ясно 759 771 +0.3 61% +9.3° более 2.5 км - - - -
09:00 +12.3° З 2 - 10 км - ясно 758 771 +0.5 84% +9.6° более 2.5 км 0 Влажная (без луж) - -
06:00 +10.2° З 1 - 10 км - ясно 758 770 +0.3 91% +8.8° более 2.5 км - - - -
03:00 +12° З 2 - 10 км - ясно 758 770 +0.3 85% +9.5° более 2.5 км - - - -
00:00 +13.1° З 2 - 10 км - ясно 757 769 +0.2 80% +9.8° более 2.5 км - - - -
Воскресенье, 14 Октября
Время местн. Темп Ветер Видим Явления Облачность нижн/средн/верх Атм. давл. Влжн Точка росы ВНГО R Сост. почвы Tg s
Напр Скр Прв ур.ст ур.м изм
21:00 +14.3° З 2 - 10 км - ясно 757 769 +0.1 76% +10.1° более 2.5 км 0 - - -
18:00 +15.2° З 1 - 10 км - преимущественно облачно 757 769 0 72% +10.1° более 2.5 км - - - -
15:00 +17.8° З,С-З 2 - 10 км - переменная облачность 757 769 -0.6 60% +10° более 2.5 км - - - -
12:00 +15.4° З 3 - 10 км - преимущественно облачно 757 770 +0.2 70% +10° более 2.5 км - - - -